< < Back
Terminal Aerodrome Forecast


Current Version              Previous Versions:   1  2  3  4  5  6  7  8  9  

Terminal Aerodrome Forecast

793
FTUS42 KCHS 232300
TAFSAV
TAF
KSAV 232324Z 2400/2424 00000KT P6SM SCT250
     FM241600 01005KT P6SM FEW250=



Latest METAR

691
SAUS80 KWBC 241000
MTRSAV
METAR KSAV 240953Z 00000KT 10SM CLR 11/08 A3004 RMK AO2 SLP170 FIRST
AUGMENTED OBSERVATION T01060078


USA.gov is the U.S. government's official web portal to all federal, state and local government web resources and services.